createdAt,value
2019-05-18T00:00:39.150Z,100226.58
2019-05-18T00:01:45.094Z,100227.36
2019-05-18T00:02:49.639Z,100224.39
2019-05-18T00:03:55.354Z,100227.09
2019-05-18T00:05:00.356Z,100222.70
2019-05-18T00:06:05.455Z,100222.12
2019-05-18T00:07:10.244Z,100214.34
2019-05-18T00:08:17.786Z,100217.50
2019-05-18T00:09:23.086Z,100214.54
2019-05-18T00:10:28.380Z,100215.92
2019-05-18T00:11:33.796Z,100220.02
2019-05-18T00:12:39.147Z,100220.31
2019-05-18T00:13:44.238Z,100220.86
2019-05-18T00:14:49.829Z,100220.36
2019-05-18T00:15:55.120Z,100214.36
2019-05-18T00:17:00.659Z,100214.72
2019-05-18T00:18:05.655Z,100207.20
2019-05-18T00:19:11.225Z,100208.25
2019-05-18T00:20:15.965Z,100207.29
2019-05-18T00:21:21.029Z,100202.03
2019-05-18T00:22:25.834Z,100201.05
2019-05-18T00:23:30.947Z,100201.84
2019-05-18T00:24:35.456Z,100195.44
2019-05-18T00:25:41.041Z,100193.55
2019-05-18T00:26:47.154Z,100192.76
2019-05-18T00:27:52.727Z,100188.12
2019-05-18T00:28:57.758Z,100189.13
2019-05-18T00:30:03.324Z,100188.69
2019-05-18T00:31:08.014Z,100192.14
2019-05-18T00:32:13.261Z,100194.50
2019-05-18T00:33:20.772Z,100184.48
2019-05-18T00:34:26.646Z,100187.39
2019-05-18T00:35:31.429Z,100185.36
2019-05-18T00:36:36.959Z,100185.34
2019-05-18T00:37:42.322Z,100186.28
2019-05-18T00:38:48.246Z,100179.92
2019-05-18T00:39:53.563Z,100187.00
2019-05-18T00:40:58.864Z,100186.53
2019-05-18T00:42:03.739Z,100189.31
2019-05-18T00:43:09.035Z,100196.16
2019-05-18T00:44:14.371Z,100188.52
2019-05-18T00:45:19.401Z,100193.59
2019-05-18T00:46:24.484Z,100194.49
2019-05-18T00:47:40.779Z,100193.50
2019-05-18T00:48:36.316Z,100189.77
2019-05-18T00:49:42.334Z,100191.45
2019-05-18T00:50:46.863Z,100190.30
2019-05-18T00:51:52.231Z,100192.20
2019-05-18T00:52:57.894Z,100184.98
2019-05-18T00:54:03.316Z,100184.48
2019-05-18T00:55:08.767Z,100187.22
2019-05-18T00:56:14.648Z,100186.50
2019-05-18T00:57:20.029Z,100180.52
2019-05-18T00:58:25.596Z,100183.74
2019-05-18T00:59:31.034Z,100184.93
2019-05-18T01:00:36.293Z,100184.98
2019-05-18T01:01:41.374Z,100193.94
2019-05-18T01:02:47.393Z,100190.38
2019-05-18T01:03:52.434Z,100193.50
2019-05-18T01:04:57.957Z,100194.61
2019-05-18T01:06:03.146Z,100194.36
2019-05-18T01:07:08.687Z,100195.98
2019-05-18T01:08:13.810Z,100194.87
2019-05-18T01:09:19.750Z,100189.10
2019-05-18T01:10:25.052Z,100195.78
2019-05-18T01:11:30.629Z,100199.88
2019-05-18T01:12:35.586Z,100203.76
2019-05-18T01:13:41.422Z,100199.06
2019-05-18T01:14:46.747Z,100202.87
2019-05-18T01:15:52.326Z,100200.52
2019-05-18T01:16:57.651Z,100206.39
2019-05-18T01:18:03.511Z,100201.11
2019-05-18T01:19:08.539Z,100199.09
2019-05-18T01:20:14.670Z,100199.48
2019-05-18T01:21:19.736Z,100197.57
2019-05-18T01:22:25.612Z,100198.38
2019-05-18T01:23:31.031Z,100189.82
2019-05-18T01:24:36.927Z,100193.20
2019-05-18T01:25:41.946Z,100191.12
2019-05-18T01:26:47.535Z,100190.84
2019-05-18T01:27:52.297Z,100189.55
2019-05-18T01:29:01.796Z,100193.50
2019-05-18T01:30:07.494Z,100189.38
2019-05-18T01:31:13.302Z,100186.92
2019-05-18T01:32:18.091Z,100184.93
2019-05-18T01:33:23.890Z,100190.40
2019-05-18T01:34:28.965Z,100183.67
2019-05-18T01:35:34.255Z,100179.02
2019-05-18T01:36:39.442Z,100182.55
2019-05-18T01:37:45.322Z,100178.73
2019-05-18T01:38:49.790Z,100181.47
2019-05-18T01:39:55.332Z,100182.23
2019-05-18T01:41:00.698Z,100177.54
2019-05-18T01:42:06.263Z,100180.03
2019-05-18T01:43:11.009Z,100174.97
2019-05-18T01:44:16.821Z,100176.25
2019-05-18T01:45:21.837Z,100182.38
2019-05-18T01:46:27.433Z,100178.78
2019-05-18T01:47:32.819Z,100177.34
2019-05-18T01:48:38.370Z,100178.88
2019-05-18T01:49:43.470Z,100179.84
2019-05-18T01:50:49.306Z,100175.25
2019-05-18T01:51:54.642Z,100176.11
2019-05-18T01:52:59.952Z,100176.58
2019-05-18T01:54:04.987Z,100176.86
2019-05-18T01:55:10.247Z,100178.73
2019-05-18T01:56:15.318Z,100181.52
2019-05-18T01:57:21.547Z,100179.84
2019-05-18T01:58:26.016Z,100180.14
2019-05-18T01:59:32.401Z,100182.44
2019-05-18T02:00:37.379Z,100186.06
2019-05-18T02:01:42.986Z,100180.92
2019-05-18T02:02:47.969Z,100182.47
2019-05-18T02:03:52.973Z,100175.83
2019-05-18T02:04:57.941Z,100179.06
2019-05-18T02:06:04.023Z,100179.64
2019-05-18T02:07:08.812Z,100179.37
2019-05-18T02:08:14.134Z,100180.03
2019-05-18T02:09:19.125Z,100180.59
2019-05-18T02:10:24.421Z,100184.84
2019-05-18T02:11:29.410Z,100182.69
2019-05-18T02:12:35.005Z,100182.94
2019-05-18T02:13:40.490Z,100179.20
2019-05-18T02:14:46.036Z,100182.97
2019-05-18T02:15:51.059Z,100186.53
2019-05-18T02:16:56.752Z,100181.72
2019-05-18T02:18:01.758Z,100185.23
2019-05-18T02:19:07.111Z,100184.46
2019-05-18T02:20:12.833Z,100192.03
2019-05-18T02:21:18.673Z,100191.56
2019-05-18T02:22:24.219Z,100198.67
2019-05-18T02:23:29.753Z,100197.77
2019-05-18T02:24:34.451Z,100198.78
2019-05-18T02:25:40.024Z,100191.92
2019-05-18T02:26:44.752Z,100190.70
2019-05-18T02:27:50.294Z,100190.63
2019-05-18T02:28:55.298Z,100190.97
2019-05-18T02:30:01.941Z,100191.59
2019-05-18T02:31:07.039Z,100195.27
2019-05-18T02:32:12.623Z,100187.52
2019-05-18T02:33:17.080Z,100188.14
2019-05-18T02:34:23.047Z,100186.04
2019-05-18T02:35:28.428Z,100190.41
2019-05-18T02:36:34.494Z,100182.09
2019-05-18T02:37:39.513Z,100186.92
2019-05-18T02:38:44.842Z,100186.70
2019-05-18T02:39:52.406Z,100177.70
2019-05-18T02:40:57.658Z,100192.58
2019-05-18T02:42:02.417Z,100190.22
2019-05-18T02:43:07.910Z,100194.20
2019-05-18T02:44:13.183Z,100185.65
2019-05-18T02:45:18.521Z,100191.85
2019-05-18T02:46:23.894Z,100189.38
2019-05-18T02:47:29.836Z,100187.69
2019-05-18T02:48:48.513Z,100183.55
2019-05-18T02:49:42.120Z,100185.00
2019-05-18T02:50:46.857Z,100182.70
2019-05-18T02:51:52.452Z,100179.97
2019-05-18T02:52:57.376Z,100176.95
2019-05-18T02:54:03.538Z,100177.70
2019-05-18T02:55:08.487Z,100183.22
2019-05-18T02:56:13.998Z,100184.24
2019-05-18T02:57:18.761Z,100179.09
2019-05-18T02:58:24.386Z,100182.06
2019-05-18T02:59:29.758Z,100176.57
2019-05-18T03:00:35.083Z,100181.09
2019-05-18T03:01:40.120Z,100175.17
2019-05-18T03:02:46.015Z,100174.59
2019-05-18T03:03:51.317Z,100178.78
2019-05-18T03:04:57.808Z,100178.16
2019-05-18T03:06:03.426Z,100181.16
2019-05-18T03:07:08.957Z,100178.82
2019-05-18T03:08:14.298Z,100179.67
2019-05-18T03:09:19.956Z,100178.02
2019-05-18T03:10:24.950Z,100176.09
2019-05-18T03:11:30.617Z,100178.50
2019-05-18T03:12:35.939Z,100180.22
2019-05-18T03:13:41.130Z,100176.57
2019-05-18T03:14:46.517Z,100172.79
2019-05-18T03:15:51.840Z,100173.50
2019-05-18T03:16:57.575Z,100180.86
2019-05-18T03:18:03.213Z,100177.48
2019-05-18T03:19:09.245Z,100176.95
2019-05-18T03:20:15.157Z,100167.13
2019-05-18T03:21:20.889Z,100174.47
2019-05-18T03:22:26.694Z,100167.10
2019-05-18T03:23:31.718Z,100169.98
2019-05-18T03:24:37.607Z,100173.04
2019-05-18T03:25:42.774Z,100166.61
2019-05-18T03:26:48.101Z,100171.66
2019-05-18T03:27:53.783Z,100164.91
2019-05-18T03:28:58.757Z,100167.98
2019-05-18T03:30:03.925Z,100166.23
2019-05-18T03:31:09.020Z,100171.64
2019-05-18T03:32:14.229Z,100170.78
2019-05-18T03:33:20.092Z,100170.23
2019-05-18T03:34:24.908Z,100162.92
2019-05-18T03:35:30.898Z,100160.66
2019-05-18T03:36:36.243Z,100163.95
2019-05-18T03:37:41.890Z,100163.19
2019-05-18T03:38:47.184Z,100164.95
2019-05-18T03:39:52.639Z,100166.01
2019-05-18T03:40:57.927Z,100155.30
2019-05-18T03:42:03.620Z,100157.10
2019-05-18T03:43:08.390Z,100164.09
2019-05-18T03:44:14.133Z,100159.81
2019-05-18T03:45:19.140Z,100163.81
2019-05-18T03:46:24.730Z,100167.28
2019-05-18T03:47:30.072Z,100167.39
2019-05-18T03:48:35.965Z,100163.71
2019-05-18T03:49:41.009Z,100162.09
2019-05-18T03:50:46.263Z,100165.19
2019-05-18T03:51:51.051Z,100164.44
2019-05-18T03:52:56.654Z,100163.88
2019-05-18T03:54:01.974Z,100162.21
2019-05-18T03:55:07.605Z,100163.52
2019-05-18T03:56:12.646Z,100159.08
2019-05-18T03:57:17.899Z,100162.91
2019-05-18T03:58:23.023Z,100152.63
2019-05-18T03:59:28.874Z,100153.02
2019-05-18T04:00:33.608Z,100154.67
2019-05-18T04:01:39.478Z,100159.81
2019-05-18T04:02:44.782Z,100159.30
2019-05-18T04:03:50.665Z,100165.42
2019-05-18T04:04:55.364Z,100169.59
2019-05-18T04:06:00.649Z,100166.42
2019-05-18T04:07:05.904Z,100171.16
2019-05-18T04:08:11.841Z,100162.24
2019-05-18T04:09:17.180Z,100166.03
2019-05-18T04:10:31.798Z,100164.15
2019-05-18T04:11:36.838Z,100154.94
2019-05-18T04:12:42.371Z,100159.67
2019-05-18T04:13:47.500Z,100160.73
2019-05-18T04:14:53.255Z,100161.15
2019-05-18T04:15:58.199Z,100160.27
2019-05-18T04:17:04.073Z,100157.41
2019-05-18T04:18:09.068Z,100156.47
2019-05-18T04:19:14.934Z,100159.84
2019-05-18T04:20:19.676Z,100160.73
2019-05-18T04:21:24.926Z,100166.48
2019-05-18T04:22:29.694Z,100167.76
2019-05-18T04:23:35.621Z,100155.83
2019-05-18T04:24:40.568Z,100161.64
2019-05-18T04:25:46.266Z,100170.03
2019-05-18T04:26:50.924Z,100165.56
2019-05-18T04:27:56.520Z,100166.60
2019-05-18T04:29:01.314Z,100168.05
2019-05-18T04:30:06.783Z,100171.48
2019-05-18T04:31:11.789Z,100168.64
2019-05-18T04:32:17.882Z,100167.20
2019-05-18T04:33:22.981Z,100172.81
2019-05-18T04:34:28.811Z,100172.20
2019-05-18T04:35:33.819Z,100167.87
2019-05-18T04:36:39.416Z,100159.52
2019-05-18T04:37:44.487Z,100167.61
2019-05-18T04:38:50.632Z,100161.56
2019-05-18T04:39:55.898Z,100165.30
2019-05-18T04:41:00.957Z,100166.16
2019-05-18T04:42:05.980Z,100165.19
2019-05-18T04:43:11.552Z,100164.49
2019-05-18T04:44:16.793Z,100169.83
2019-05-18T04:45:22.072Z,100170.24
2019-05-18T04:46:27.280Z,100162.75
2019-05-18T04:47:33.106Z,100164.77
2019-05-18T04:48:38.428Z,100166.92
2019-05-18T04:49:43.798Z,100167.50
2019-05-18T04:50:48.903Z,100167.87
2019-05-18T04:51:54.758Z,100168.75
2019-05-18T04:52:59.800Z,100166.16
2019-05-18T04:54:05.095Z,100173.06
2019-05-18T04:55:09.947Z,100168.61
2019-05-18T04:56:15.654Z,100168.09
2019-05-18T04:57:21.250Z,100167.59
2019-05-18T04:58:26.904Z,100175.39
2019-05-18T04:59:31.752Z,100173.48
2019-05-18T05:00:37.412Z,100173.28
2019-05-18T05:01:42.207Z,100177.48
2019-05-18T05:02:48.415Z,100176.21
2019-05-18T05:03:53.487Z,100174.25
2019-05-18T05:04:59.376Z,100181.16
2019-05-18T05:06:04.087Z,100185.40
2019-05-18T05:07:09.684Z,100183.37
2019-05-18T05:08:14.486Z,100184.35
2019-05-18T05:09:20.487Z,100186.67
2019-05-18T05:10:25.780Z,100182.88
2019-05-18T05:11:31.900Z,100182.16
2019-05-18T05:12:37.237Z,100179.62
2019-05-18T05:13:43.323Z,100183.10
2019-05-18T05:14:48.938Z,100179.56
2019-05-18T05:15:54.597Z,100184.52
2019-05-18T05:16:59.863Z,100184.52
2019-05-18T05:18:05.424Z,100182.52
2019-05-18T05:19:09.900Z,100180.78
2019-05-18T05:20:19.837Z,100181.16
2019-05-18T05:21:22.493Z,100181.41
2019-05-18T05:22:28.387Z,100181.91
2019-05-18T05:23:33.241Z,100181.94
2019-05-18T05:24:39.097Z,100181.97
2019-05-18T05:25:44.656Z,100185.40
2019-05-18T05:26:50.206Z,100183.05
2019-05-18T05:27:55.596Z,100185.67
2019-05-18T05:29:01.858Z,100183.98
2019-05-18T05:30:06.629Z,100181.74
2019-05-18T05:31:12.791Z,100178.84
2019-05-18T05:32:18.233Z,100186.63
2019-05-18T05:33:26.719Z,100182.16
2019-05-18T05:34:31.724Z,100185.08
2019-05-18T05:35:37.966Z,100184.50
2019-05-18T05:36:43.305Z,100187.21
2019-05-18T05:37:49.255Z,100193.09
2019-05-18T05:38:53.907Z,100193.63
2019-05-18T05:39:59.827Z,100190.69
2019-05-18T05:41:04.660Z,100190.34
2019-05-18T05:42:10.182Z,100191.80
2019-05-18T05:43:15.554Z,100188.22
2019-05-18T05:44:20.861Z,100187.92
2019-05-18T05:45:25.475Z,100193.58
2019-05-18T05:46:31.462Z,100196.28
2019-05-18T05:47:36.479Z,100196.25
2019-05-18T05:48:42.173Z,100193.86
2019-05-18T05:49:47.474Z,100190.14
2019-05-18T05:50:53.019Z,100194.25
2019-05-18T05:51:58.037Z,100200.34
2019-05-18T05:53:03.667Z,100191.83
2019-05-18T05:54:09.021Z,100191.34
2019-05-18T05:55:14.980Z,100192.59
2019-05-18T05:56:20.504Z,100194.30
2019-05-18T05:57:26.162Z,100193.17
2019-05-18T05:58:31.310Z,100195.77
2019-05-18T05:59:39.757Z,100195.27
2019-05-18T06:00:55.979Z,100199.75
2019-05-18T06:02:11.974Z,100197.02
2019-05-18T06:03:58.258Z,100198.80
2019-05-18T06:08:08.810Z,100194.50
2019-05-18T06:10:43.390Z,100194.50
2019-05-18T06:12:41.025Z,100198.69
2019-05-18T06:17:22.341Z,100194.13
2019-05-18T06:21:18.748Z,100198.03
2019-05-18T06:22:19.453Z,100205.97
2019-05-18T06:23:40.208Z,100204.47
2019-05-18T06:24:51.215Z,100198.34
2019-05-18T06:26:00.178Z,100203.95
2019-05-18T06:27:08.073Z,100208.68
2019-05-18T06:28:24.293Z,100208.05
2019-05-18T06:29:36.856Z,100205.86
2019-05-18T06:31:04.380Z,100211.06
2019-05-18T06:32:25.798Z,100209.45
2019-05-18T06:33:39.724Z,100215.79
2019-05-18T06:35:01.626Z,100211.23
2019-05-18T06:36:13.527Z,100211.22
2019-05-18T06:37:30.298Z,100213.44
2019-05-18T06:38:38.983Z,100215.93
2019-05-18T06:39:46.594Z,100218.48
2019-05-18T06:40:54.225Z,100209.45
2019-05-18T06:42:03.273Z,100214.64
2019-05-18T06:43:22.917Z,100218.48
2019-05-18T06:44:41.440Z,100213.23
2019-05-18T06:45:52.810Z,100220.19
2019-05-18T06:47:36.320Z,100219.13
2019-05-18T06:48:41.230Z,100217.46
2019-05-18T06:49:47.136Z,100219.45
2019-05-18T06:51:06.325Z,100220.73
2019-05-18T06:52:00.418Z,100211.41
2019-05-18T06:53:05.539Z,100219.95
2019-05-18T06:54:10.873Z,100223.27
2019-05-18T06:55:15.628Z,100227.61
2019-05-18T06:56:24.453Z,100225.89
2019-05-18T06:57:30.215Z,100227.32
2019-05-18T06:58:36.679Z,100225.29
2019-05-18T06:59:42.395Z,100221.58
2019-05-18T07:00:49.832Z,100225.52
2019-05-18T07:01:55.117Z,100227.78
2019-05-18T07:03:01.022Z,100229.78
2019-05-18T07:04:06.166Z,100224.88
2019-05-18T07:05:12.369Z,100233.27
2019-05-18T07:06:17.146Z,100230.17
2019-05-18T07:07:22.442Z,100228.78
2019-05-18T07:08:27.596Z,100223.46
2019-05-18T07:09:33.884Z,100227.56
2019-05-18T07:10:38.880Z,100227.50
2019-05-18T07:11:44.451Z,100227.19
2019-05-18T07:12:49.430Z,100230.52
2019-05-18T07:13:54.885Z,100223.25
2019-05-18T07:15:00.544Z,100230.78
2019-05-18T07:16:06.207Z,100233.02
2019-05-18T07:17:11.020Z,100233.05
2019-05-18T07:18:16.635Z,100235.58
2019-05-18T07:19:21.628Z,100226.89
2019-05-18T07:20:26.883Z,100226.89
2019-05-18T07:21:32.157Z,100218.36
2019-05-18T07:22:37.751Z,100218.36
2019-05-18T07:23:43.978Z,100222.47
2019-05-18T07:24:49.589Z,100224.00
2019-05-18T07:25:54.864Z,100222.06
2019-05-18T07:27:00.789Z,100221.66
2019-05-18T07:28:05.519Z,100228.63
2019-05-18T07:29:10.499Z,100224.14
2019-05-18T07:30:15.720Z,100222.73
2019-05-18T07:31:21.246Z,100227.07
2019-05-18T07:32:26.620Z,100218.00
2019-05-18T07:33:32.179Z,100219.39
2019-05-18T07:34:36.861Z,100229.40
2019-05-18T07:35:42.423Z,100224.98
2019-05-18T07:36:47.144Z,100223.61
2019-05-18T07:37:53.082Z,100233.87
2019-05-18T07:38:58.125Z,100237.19
2019-05-18T07:40:03.578Z,100233.08
2019-05-18T07:41:08.910Z,100234.07
2019-05-18T07:42:14.193Z,100237.39
2019-05-18T07:43:19.228Z,100235.30
2019-05-18T07:44:24.796Z,100238.45
2019-05-18T07:45:29.508Z,100235.98
2019-05-18T07:46:35.317Z,100236.48
2019-05-18T07:47:40.283Z,100231.72
2019-05-18T07:48:45.824Z,100227.02
2019-05-18T07:49:51.084Z,100238.24
2019-05-18T07:50:57.219Z,100234.31
2019-05-18T07:52:01.992Z,100228.19
2019-05-18T07:53:09.195Z,100231.02
2019-05-18T07:54:13.949Z,100236.11
2019-05-18T07:55:19.570Z,100236.95
2019-05-18T07:56:24.555Z,100231.47
2019-05-18T07:57:29.857Z,100239.35
2019-05-18T07:58:34.693Z,100244.23
2019-05-18T07:59:40.277Z,100238.95
2019-05-18T08:00:45.961Z,100221.36
2019-05-18T08:01:52.129Z,100232.91
2019-05-18T08:02:56.814Z,100225.06
2019-05-18T08:04:02.450Z,100237.90
2019-05-18T08:05:07.648Z,100231.39
2019-05-18T08:06:13.298Z,100227.38
2019-05-18T08:07:18.135Z,100233.11
2019-05-18T08:08:23.799Z,100227.61
2019-05-18T08:09:29.794Z,100228.73
2019-05-18T08:10:39.726Z,100231.30
2019-05-18T08:11:45.450Z,100222.04
2019-05-18T08:12:51.329Z,100225.91
2019-05-18T08:13:56.669Z,100224.58
2019-05-18T08:15:02.440Z,100223.52
2019-05-18T08:16:07.487Z,100223.37
2019-05-18T08:17:13.080Z,100217.89
2019-05-18T08:18:18.098Z,100226.11
2019-05-18T08:19:24.201Z,100216.47
2019-05-18T08:20:29.576Z,100216.55
2019-05-18T08:21:35.130Z,100223.21
2019-05-18T08:22:39.965Z,100218.73
2019-05-18T08:23:45.805Z,100218.91
2019-05-18T08:24:50.838Z,100220.39
2019-05-18T08:25:56.623Z,100222.63
2019-05-18T08:27:02.600Z,100220.50
2019-05-18T08:28:08.343Z,100221.52
2019-05-18T08:29:13.345Z,100222.45
2019-05-18T08:30:18.632Z,100223.70
2019-05-18T08:31:23.335Z,100222.95
2019-05-18T08:32:29.486Z,100227.14
2019-05-18T08:33:34.904Z,100225.89
2019-05-18T08:34:40.209Z,100222.27
2019-05-18T08:35:45.490Z,100222.45
2019-05-18T08:36:50.884Z,100228.55
2019-05-18T08:37:56.256Z,100224.62
2019-05-18T08:39:01.703Z,100225.99
2019-05-18T08:40:06.949Z,100227.34
2019-05-18T08:41:12.552Z,100226.23
2019-05-18T08:42:17.600Z,100227.66
2019-05-18T08:43:23.760Z,100229.55
2019-05-18T08:44:28.743Z,100230.49
2019-05-18T08:45:34.631Z,100228.56
2019-05-18T08:46:39.705Z,100226.99
2019-05-18T08:47:45.142Z,100228.80
2019-05-18T08:48:50.127Z,100226.83
2019-05-18T08:49:55.169Z,100225.94
2019-05-18T08:50:59.944Z,100225.20
2019-05-18T08:52:08.406Z,100227.88
2019-05-18T08:53:11.827Z,100229.00
2019-05-18T08:54:17.570Z,100225.42
2019-05-18T08:55:22.583Z,100228.73
2019-05-18T08:56:28.476Z,100222.91
2019-05-18T08:57:33.251Z,100229.69
2019-05-18T08:58:38.871Z,100227.55
2019-05-18T08:59:43.622Z,100228.33
2019-05-18T09:00:48.991Z,100234.73
2019-05-18T09:01:53.874Z,100240.45
2019-05-18T09:02:59.130Z,100234.95
2019-05-18T09:04:03.928Z,100237.78
2019-05-18T09:05:10.136Z,100243.98
2019-05-18T09:06:15.350Z,100238.30
2019-05-18T09:07:20.413Z,100242.84
2019-05-18T09:08:25.126Z,100239.22
2019-05-18T09:09:30.586Z,100241.52
2019-05-18T09:10:35.429Z,100242.39
2019-05-18T09:11:40.954Z,100247.65
2019-05-18T09:12:45.809Z,100240.60
2019-05-18T09:13:51.058Z,100242.58
2019-05-18T09:14:56.132Z,100245.41
2019-05-18T09:16:02.247Z,100245.56
2019-05-18T09:17:07.314Z,100242.66
2019-05-18T09:18:12.907Z,100239.12
2019-05-18T09:19:17.670Z,100240.66
2019-05-18T09:20:22.963Z,100233.45
2019-05-18T09:21:28.561Z,100240.69
2019-05-18T09:22:34.764Z,100237.05
2019-05-18T09:23:40.152Z,100233.84
2019-05-18T09:24:46.054Z,100232.50
2019-05-18T09:25:51.370Z,100234.73
2019-05-18T09:26:56.638Z,100239.16
2019-05-18T09:28:02.288Z,100235.80
2019-05-18T09:29:07.646Z,100235.77
2019-05-18T09:30:12.961Z,100235.25
2019-05-18T09:31:18.897Z,100229.29
2019-05-18T09:32:23.932Z,100234.66
2019-05-18T09:33:29.867Z,100240.86
2019-05-18T09:34:35.234Z,100241.34
2019-05-18T09:35:40.817Z,100238.24
2019-05-18T09:36:45.550Z,100238.94
2019-05-18T09:37:51.541Z,100235.08
2019-05-18T09:38:56.554Z,100237.11
2019-05-18T09:40:02.197Z,100236.92
2019-05-18T09:41:06.999Z,100228.70
2019-05-18T09:42:12.637Z,100232.89
2019-05-18T09:43:17.414Z,100232.37
2019-05-18T09:44:22.703Z,100230.92
2019-05-18T09:45:27.442Z,100232.33
2019-05-18T09:46:32.525Z,100229.88
2019-05-18T09:47:37.302Z,100231.62
2019-05-18T09:48:43.184Z,100229.59
2019-05-18T09:49:48.038Z,100228.22
2019-05-18T09:50:54.288Z,100229.23
2019-05-18T09:51:59.011Z,100224.22
2019-05-18T09:53:04.330Z,100229.55
2019-05-18T09:54:09.181Z,100227.40
2019-05-18T09:55:14.852Z,100230.48
2019-05-18T09:56:20.028Z,100229.91
2019-05-18T09:57:25.059Z,100229.31
2019-05-18T09:58:30.399Z,100223.19
2019-05-18T09:59:36.000Z,100237.84
2019-05-18T10:00:40.740Z,100231.81
2019-05-18T10:01:46.072Z,100229.23
2019-05-18T10:02:50.885Z,100236.01
2019-05-18T10:03:56.492Z,100235.30
2019-05-18T10:05:02.002Z,100237.66
2019-05-18T10:06:07.107Z,100236.11
2019-05-18T10:07:12.428Z,100239.46
2019-05-18T10:08:17.765Z,100236.86
2019-05-18T10:09:22.737Z,100234.45
2019-05-18T10:10:28.366Z,100234.47
2019-05-18T10:11:38.350Z,100239.23
2019-05-18T10:12:40.631Z,100236.91
2019-05-18T10:13:45.379Z,100238.39
2019-05-18T10:14:50.990Z,100238.52
2019-05-18T10:15:55.716Z,100243.20
2019-05-18T10:17:04.304Z,100239.67
2019-05-18T10:18:09.125Z,100238.50
2019-05-18T10:19:15.100Z,100241.87
2019-05-18T10:20:19.730Z,100235.09
2019-05-18T10:21:24.767Z,100240.32
2019-05-18T10:22:30.152Z,100244.82
2019-05-18T10:23:35.734Z,100248.33
2019-05-18T10:24:40.235Z,100242.77
2019-05-18T10:25:45.516Z,100238.91
2019-05-18T10:26:50.263Z,100248.73
2019-05-18T10:27:55.792Z,100240.59
2019-05-18T10:29:01.727Z,100244.81
2019-05-18T10:30:07.206Z,100242.32
2019-05-18T10:31:12.574Z,100242.53
2019-05-18T10:32:17.947Z,100250.32
2019-05-18T10:33:23.029Z,100240.26
2019-05-18T10:34:28.607Z,100242.59
2019-05-18T10:35:33.209Z,100240.52
2019-05-18T10:36:39.053Z,100230.21
2019-05-18T10:37:44.334Z,100226.91
2019-05-18T10:38:49.932Z,100222.08
2019-05-18T10:39:54.973Z,100227.02
2019-05-18T10:41:00.100Z,100221.43
2019-05-18T10:42:05.406Z,100220.70
2019-05-18T10:43:11.296Z,100220.05
2019-05-18T10:44:16.321Z,100226.53
2019-05-18T10:45:22.681Z,100223.91
2019-05-18T10:46:27.783Z,100219.40
2019-05-18T10:47:33.376Z,100216.98
2019-05-18T10:48:38.383Z,100221.52
2019-05-18T10:49:44.243Z,100220.63
2019-05-18T10:50:49.271Z,100228.50
2019-05-18T10:51:54.856Z,100225.41
2019-05-18T10:52:59.902Z,100234.30
2019-05-18T10:54:05.309Z,100238.91
2019-05-18T10:55:10.405Z,100242.04
2019-05-18T10:56:16.074Z,100238.75
2019-05-18T10:57:21.110Z,100237.61
2019-05-18T10:58:26.372Z,100239.66
2019-05-18T10:59:31.447Z,100238.51
2019-05-18T11:00:37.032Z,100235.21
2019-05-18T11:01:44.025Z,100240.63
2019-05-18T11:02:49.333Z,100240.48
2019-05-18T11:03:54.313Z,100233.14
2019-05-18T11:04:59.634Z,100238.73
2019-05-18T11:06:04.585Z,100232.39
2019-05-18T11:07:09.829Z,100231.89
2019-05-18T11:08:14.948Z,100226.14
2019-05-18T11:09:20.531Z,100233.66
2019-05-18T11:10:25.826Z,100227.09
2019-05-18T11:11:31.439Z,100223.02
2019-05-18T11:12:36.781Z,100215.52
2019-05-18T11:13:42.037Z,100228.91
2019-05-18T11:14:47.012Z,100224.12
2019-05-18T11:15:52.535Z,100225.50
2019-05-18T11:16:57.868Z,100226.41
2019-05-18T11:18:03.137Z,100214.69
2019-05-18T11:19:07.631Z,100215.44
2019-05-18T11:20:13.520Z,100209.66
2019-05-18T11:21:18.516Z,100220.01
2019-05-18T11:22:24.071Z,100206.67
2019-05-18T11:23:42.530Z,100209.16
2019-05-18T11:24:36.007Z,100214.32
2019-05-18T11:25:41.076Z,100213.59
2019-05-18T11:26:46.379Z,100218.42
2019-05-18T11:27:51.212Z,100218.83
2019-05-18T11:28:56.604Z,100217.67
2019-05-18T11:30:01.670Z,100214.92
2019-05-18T11:31:06.997Z,100216.34
2019-05-18T11:32:11.687Z,100215.91
2019-05-18T11:33:17.246Z,100221.85
2019-05-18T11:34:22.072Z,100219.08
2019-05-18T11:35:27.739Z,100215.92
2019-05-18T11:36:32.843Z,100206.04
2019-05-18T11:37:38.515Z,100213.30
2019-05-18T11:38:43.845Z,100213.08
2019-05-18T11:39:49.811Z,100206.84
2019-05-18T11:40:55.277Z,100204.25
2019-05-18T11:42:00.754Z,100201.87
2019-05-18T11:43:05.791Z,100206.42
2019-05-18T11:44:11.747Z,100207.10
2019-05-18T11:45:18.189Z,100194.28
2019-05-18T11:46:23.859Z,100195.02
2019-05-18T11:47:28.363Z,100192.05
2019-05-18T11:48:33.906Z,100191.66
2019-05-18T11:49:38.966Z,100191.36
2019-05-18T11:50:44.805Z,100192.22
2019-05-18T11:51:49.391Z,100193.00
2019-05-18T11:52:54.401Z,100186.11
2019-05-18T11:53:59.696Z,100181.27
2019-05-18T11:55:05.440Z,100183.68
2019-05-18T11:56:10.723Z,100182.26
2019-05-18T11:57:15.986Z,100174.47
2019-05-18T11:58:21.005Z,100176.08
2019-05-18T11:59:26.328Z,100178.33
2019-05-18T12:00:31.733Z,100177.56
2019-05-18T12:01:36.996Z,100177.39
2019-05-18T12:02:42.023Z,100175.67
2019-05-18T12:03:47.857Z,100174.40
2019-05-18T12:04:52.897Z,100181.11
2019-05-18T12:05:58.790Z,100179.09
2019-05-18T12:07:04.407Z,100180.23
2019-05-18T12:08:10.229Z,100178.77
2019-05-18T12:09:15.418Z,100180.92
2019-05-18T12:10:22.174Z,100171.78
2019-05-18T12:11:27.693Z,100174.30
2019-05-18T12:12:33.835Z,100173.82
2019-05-18T12:13:39.109Z,100169.08
2019-05-18T12:14:44.671Z,100166.67
2019-05-18T12:15:49.201Z,100171.97
2019-05-18T12:16:55.113Z,100165.09
2019-05-18T12:17:59.863Z,100162.56
2019-05-18T12:19:05.208Z,100165.41
2019-05-18T12:20:12.395Z,100166.71
2019-05-18T12:21:17.924Z,100164.25
2019-05-18T12:22:23.117Z,100163.23
2019-05-18T12:23:28.402Z,100160.92
2019-05-18T12:24:33.441Z,100154.59
2019-05-18T12:25:38.684Z,100157.58
2019-05-18T12:26:44.065Z,100156.38
2019-05-18T12:27:49.409Z,100157.55
2019-05-18T12:28:54.357Z,100157.88
2019-05-18T12:29:59.354Z,100154.65
2019-05-18T12:31:04.475Z,100149.40
2019-05-18T12:32:09.803Z,100153.45
2019-05-18T12:33:15.108Z,100152.75
2019-05-18T12:34:20.895Z,100155.94
2019-05-18T12:35:25.574Z,100161.11
2019-05-18T12:36:30.896Z,100155.53
2019-05-18T12:37:35.618Z,100158.28
2019-05-18T12:38:41.451Z,100148.63
2019-05-18T12:39:47.042Z,100145.61
2019-05-18T12:40:52.583Z,100152.25
2019-05-18T12:41:57.627Z,100160.12
2019-05-18T12:43:06.176Z,100156.13